sensor_id;sensor_type;location;lat;lon;timestamp;temperature;humidity
573;DHT22;271;51.114;13.780;2022-12-29T00:01:38;8.70;1.00
573;DHT22;271;51.114;13.780;2022-12-29T00:04:05;8.70;1.00
573;DHT22;271;51.114;13.780;2022-12-29T00:06:34;8.60;1.00
573;DHT22;271;51.114;13.780;2022-12-29T00:09:02;8.60;1.00
573;DHT22;271;51.114;13.780;2022-12-29T00:11:29;8.60;1.00
573;DHT22;271;51.114;13.780;2022-12-29T00:13:57;8.60;1.00
573;DHT22;271;51.114;13.780;2022-12-29T00:16:43;8.60;1.00
573;DHT22;271;51.114;13.780;2022-12-29T00:19:11;8.60;1.00
573;DHT22;271;51.114;13.780;2022-12-29T00:21:54;8.70;1.00
573;DHT22;271;51.114;13.780;2022-12-29T00:24:39;8.70;1.00
573;DHT22;271;51.114;13.780;2022-12-29T00:27:26;8.70;1.00
573;DHT22;271;51.114;13.780;2022-12-29T00:30:12;8.80;1.00
573;DHT22;271;51.114;13.780;2022-12-29T00:32:58;8.80;1.00
573;DHT22;271;51.114;13.780;2022-12-29T00:35:45;8.80;1.00
573;DHT22;271;51.114;13.780;2022-12-29T00:38:14;8.90;1.00
573;DHT22;271;51.114;13.780;2022-12-29T00:40:59;9.00;1.00
573;DHT22;271;51.114;13.780;2022-12-29T00:43:44;9.20;1.00
573;DHT22;271;51.114;13.780;2022-12-29T00:46:28;9.30;1.00
573;DHT22;271;51.114;13.780;2022-12-29T00:48:56;9.50;1.00
573;DHT22;271;51.114;13.780;2022-12-29T00:51:41;9.40;1.00
573;DHT22;271;51.114;13.780;2022-12-29T00:54:10;9.50;1.00
573;DHT22;271;51.114;13.780;2022-12-29T00:56:37;9.70;1.00
573;DHT22;271;51.114;13.780;2022-12-29T00:59:07;9.70;1.00
573;DHT22;271;51.114;13.780;2022-12-29T01:01:34;9.80;1.00
573;DHT22;271;51.114;13.780;2022-12-29T01:04:03;9.80;1.00
573;DHT22;271;51.114;13.780;2022-12-29T01:06:31;9.80;1.00
573;DHT22;271;51.114;13.780;2022-12-29T01:08:58;9.80;1.00
573;DHT22;271;51.114;13.780;2022-12-29T01:11:44;9.90;1.00
573;DHT22;271;51.114;13.780;2022-12-29T01:14:12;9.90;1.00
573;DHT22;271;51.114;13.780;2022-12-29T01:16:39;9.80;1.00
573;DHT22;271;51.114;13.780;2022-12-29T01:19:07;9.80;1.00
573;DHT22;271;51.114;13.780;2022-12-29T01:21:34;9.70;1.00
573;DHT22;271;51.114;13.780;2022-12-29T01:24:02;9.70;1.00
573;DHT22;271;51.114;13.780;2022-12-29T01:26:29;9.60;1.00
573;DHT22;271;51.114;13.780;2022-12-29T01:28:58;9.50;1.00
573;DHT22;271;51.114;13.780;2022-12-29T01:31:25;9.50;1.00
573;DHT22;271;51.114;13.780;2022-12-29T01:33:53;9.50;1.00
573;DHT22;271;51.114;13.780;2022-12-29T01:36:20;9.60;1.00
573;DHT22;271;51.114;13.780;2022-12-29T01:38:48;9.60;1.00
573;DHT22;271;51.114;13.780;2022-12-29T01:41:16;9.70;1.00
573;DHT22;271;51.114;13.780;2022-12-29T01:43:46;9.70;1.00
573;DHT22;271;51.114;13.780;2022-12-29T01:46:21;9.70;1.00
573;DHT22;271;51.114;13.780;2022-12-29T01:48:53;9.60;1.00
573;DHT22;271;51.114;13.780;2022-12-29T01:51:22;9.60;1.00
573;DHT22;271;51.114;13.780;2022-12-29T01:53:50;9.60;1.00
573;DHT22;271;51.114;13.780;2022-12-29T01:56:20;9.60;1.00
573;DHT22;271;51.114;13.780;2022-12-29T01:58:52;9.50;1.00
573;DHT22;271;51.114;13.780;2022-12-29T02:01:23;9.40;1.00
573;DHT22;271;51.114;13.780;2022-12-29T02:03:51;9.40;1.00
573;DHT22;271;51.114;13.780;2022-12-29T02:06:21;9.20;1.00
573;DHT22;271;51.114;13.780;2022-12-29T02:08:50;9.20;1.00
573;DHT22;271;51.114;13.780;2022-12-29T02:11:19;9.10;1.00
573;DHT22;271;51.114;13.780;2022-12-29T02:13:48;9.00;1.00
573;DHT22;271;51.114;13.780;2022-12-29T02:16:33;8.80;1.00
573;DHT22;271;51.114;13.780;2022-12-29T02:19:17;8.80;1.00
573;DHT22;271;51.114;13.780;2022-12-29T02:22:00;8.80;1.00
573;DHT22;271;51.114;13.780;2022-12-29T02:27:40;8.70;1.00
573;DHT22;271;51.114;13.780;2022-12-29T02:30:27;8.70;1.00
573;DHT22;271;51.114;13.780;2022-12-29T02:32:58;8.70;1.00
573;DHT22;271;51.114;13.780;2022-12-29T02:35:34;8.70;1.00
573;DHT22;271;51.114;13.780;2022-12-29T02:38:11;8.80;1.00
573;DHT22;271;51.114;13.780;2022-12-29T02:40:44;8.80;1.00
573;DHT22;271;51.114;13.780;2022-12-29T02:43:21;8.90;1.00
573;DHT22;271;51.114;13.780;2022-12-29T02:45:54;8.90;1.00
573;DHT22;271;51.114;13.780;2022-12-29T02:48:27;9.00;1.00
573;DHT22;271;51.114;13.780;2022-12-29T02:51:00;9.10;1.00
573;DHT22;271;51.114;13.780;2022-12-29T02:53:30;9.10;1.00
573;DHT22;271;51.114;13.780;2022-12-29T02:56:17;9.10;1.00
573;DHT22;271;51.114;13.780;2022-12-29T02:58:44;9.10;1.00
573;DHT22;271;51.114;13.780;2022-12-29T03:01:23;9.10;1.00
573;DHT22;271;51.114;13.780;2022-12-29T03:04:15;9.20;1.00
573;DHT22;271;51.114;13.780;2022-12-29T03:06:54;9.20;1.00
573;DHT22;271;51.114;13.780;2022-12-29T03:09:31;9.30;1.00
573;DHT22;271;51.114;13.780;2022-12-29T03:12:11;9.40;1.00
573;DHT22;271;51.114;13.780;2022-12-29T03:14:55;9.50;1.00
573;DHT22;271;51.114;13.780;2022-12-29T03:17:48;9.60;1.00
573;DHT22;271;51.114;13.780;2022-12-29T03:20:20;9.70;1.00
573;DHT22;271;51.114;13.780;2022-12-29T03:22:51;9.70;1.00
573;DHT22;271;51.114;13.780;2022-12-29T03:25:24;9.70;1.00
573;DHT22;271;51.114;13.780;2022-12-29T03:27:56;9.60;1.00
573;DHT22;271;51.114;13.780;2022-12-29T03:30:24;9.60;1.00
573;DHT22;271;51.114;13.780;2022-12-29T03:32:56;9.70;1.00
573;DHT22;271;51.114;13.780;2022-12-29T03:35:28;9.70;1.00
573;DHT22;271;51.114;13.780;2022-12-29T03:37:59;9.80;1.00
573;DHT22;271;51.114;13.780;2022-12-29T03:40:31;9.80;1.00
573;DHT22;271;51.114;13.780;2022-12-29T03:43:01;9.90;1.00
573;DHT22;271;51.114;13.780;2022-12-29T03:45:29;9.90;1.00
573;DHT22;271;51.114;13.780;2022-12-29T03:47:58;9.90;1.00
573;DHT22;271;51.114;13.780;2022-12-29T03:50:25;10.00;1.00
573;DHT22;271;51.114;13.780;2022-12-29T03:52:52;10.00;1.00
573;DHT22;271;51.114;13.780;2022-12-29T03:55:20;10.10;1.00
573;DHT22;271;51.114;13.780;2022-12-29T03:57:47;10.20;1.00
573;DHT22;271;51.114;13.780;2022-12-29T04:00:15;10.30;1.00
573;DHT22;271;51.114;13.780;2022-12-29T04:02:42;10.30;1.00
573;DHT22;271;51.114;13.780;2022-12-29T04:05:11;10.40;1.00
573;DHT22;271;51.114;13.780;2022-12-29T04:07:38;10.50;1.00
573;DHT22;271;51.114;13.780;2022-12-29T04:10:06;10.60;1.00
573;DHT22;271;51.114;13.780;2022-12-29T04:12:34;10.70;1.00
573;DHT22;271;51.114;13.780;2022-12-29T04:15:01;10.60;1.00
573;DHT22;271;51.114;13.780;2022-12-29T04:17:28;10.70;1.00
573;DHT22;271;51.114;13.780;2022-12-29T04:19:56;10.70;1.00
573;DHT22;271;51.114;13.780;2022-12-29T04:22:44;10.70;1.00
573;DHT22;271;51.114;13.780;2022-12-29T04:25:12;10.70;1.00
573;DHT22;271;51.114;13.780;2022-12-29T04:27:39;10.70;1.00
573;DHT22;271;51.114;13.780;2022-12-29T04:30:08;10.70;1.00
573;DHT22;271;51.114;13.780;2022-12-29T04:32:35;10.60;1.00
573;DHT22;271;51.114;13.780;2022-12-29T04:35:04;10.70;1.00
573;DHT22;271;51.114;13.780;2022-12-29T04:37:32;10.60;1.00
573;DHT22;271;51.114;13.780;2022-12-29T04:40:01;10.50;1.00
573;DHT22;271;51.114;13.780;2022-12-29T04:42:28;10.50;1.00
573;DHT22;271;51.114;13.780;2022-12-29T04:44:55;10.50;1.00
573;DHT22;271;51.114;13.780;2022-12-29T04:47:23;10.50;1.00
573;DHT22;271;51.114;13.780;2022-12-29T04:49:50;10.50;1.00
573;DHT22;271;51.114;13.780;2022-12-29T04:52:18;10.50;1.00
573;DHT22;271;51.114;13.780;2022-12-29T04:54:45;10.50;1.00
573;DHT22;271;51.114;13.780;2022-12-29T04:57:14;10.50;1.00
573;DHT22;271;51.114;13.780;2022-12-29T04:59:41;10.50;1.00
573;DHT22;271;51.114;13.780;2022-12-29T05:02:09;10.50;1.00
573;DHT22;271;51.114;13.780;2022-12-29T05:04:39;10.50;1.00
573;DHT22;271;51.114;13.780;2022-12-29T05:07:07;10.50;1.00
573;DHT22;271;51.114;13.780;2022-12-29T05:09:35;10.50;1.00
573;DHT22;271;51.114;13.780;2022-12-29T05:12:03;10.40;1.00
573;DHT22;271;51.114;13.780;2022-12-29T05:14:32;10.40;1.00
573;DHT22;271;51.114;13.780;2022-12-29T05:16:59;10.40;1.00
573;DHT22;271;51.114;13.780;2022-12-29T05:19:27;10.40;1.00
573;DHT22;271;51.114;13.780;2022-12-29T05:21:55;10.40;1.00
573;DHT22;271;51.114;13.780;2022-12-29T05:24:22;10.50;1.00
573;DHT22;271;51.114;13.780;2022-12-29T05:26:49;10.40;1.00
573;DHT22;271;51.114;13.780;2022-12-29T05:29:17;10.30;1.00
573;DHT22;271;51.114;13.780;2022-12-29T05:31:46;10.40;1.00
573;DHT22;271;51.114;13.780;2022-12-29T05:34:14;10.50;1.00
573;DHT22;271;51.114;13.780;2022-12-29T05:36:42;10.40;1.00
573;DHT22;271;51.114;13.780;2022-12-29T05:39:09;10.40;1.00
573;DHT22;271;51.114;13.780;2022-12-29T05:41:37;10.40;1.00
573;DHT22;271;51.114;13.780;2022-12-29T05:44:04;10.40;1.00
573;DHT22;271;51.114;13.780;2022-12-29T05:46:33;10.40;1.00
573;DHT22;271;51.114;13.780;2022-12-29T05:49:02;10.50;1.00
573;DHT22;271;51.114;13.780;2022-12-29T05:51:29;10.60;1.00
573;DHT22;271;51.114;13.780;2022-12-29T05:53:57;10.70;1.00
573;DHT22;271;51.114;13.780;2022-12-29T05:56:24;10.70;1.00
573;DHT22;271;51.114;13.780;2022-12-29T05:58:52;10.70;1.00
573;DHT22;271;51.114;13.780;2022-12-29T06:01:19;10.70;1.00
573;DHT22;271;51.114;13.780;2022-12-29T06:03:47;10.70;1.00
573;DHT22;271;51.114;13.780;2022-12-29T06:06:16;10.70;1.00
573;DHT22;271;51.114;13.780;2022-12-29T06:08:43;10.60;1.00
573;DHT22;271;51.114;13.780;2022-12-29T06:11:11;10.60;1.00
573;DHT22;271;51.114;13.780;2022-12-29T06:13:38;10.60;1.00
573;DHT22;271;51.114;13.780;2022-12-29T06:16:07;10.60;1.00
573;DHT22;271;51.114;13.780;2022-12-29T06:18:34;10.60;1.00
573;DHT22;271;51.114;13.780;2022-12-29T06:21:03;10.70;1.00
573;DHT22;271;51.114;13.780;2022-12-29T06:23:32;10.70;1.00
573;DHT22;271;51.114;13.780;2022-12-29T06:25:59;10.70;1.00
573;DHT22;271;51.114;13.780;2022-12-29T06:28:27;10.80;1.00
573;DHT22;271;51.114;13.780;2022-12-29T06:30:54;10.80;1.00
573;DHT22;271;51.114;13.780;2022-12-29T06:33:23;10.70;1.00
573;DHT22;271;51.114;13.780;2022-12-29T06:35:51;10.70;1.00
573;DHT22;271;51.114;13.780;2022-12-29T06:38:18;10.80;1.00
573;DHT22;271;51.114;13.780;2022-12-29T06:40:47;10.80;1.00
573;DHT22;271;51.114;13.780;2022-12-29T06:43:14;10.90;1.00
573;DHT22;271;51.114;13.780;2022-12-29T06:45:42;10.80;1.00
573;DHT22;271;51.114;13.780;2022-12-29T06:48:10;10.80;1.00
573;DHT22;271;51.114;13.780;2022-12-29T06:50:37;10.80;1.00
573;DHT22;271;51.114;13.780;2022-12-29T06:53:04;10.80;1.00
573;DHT22;271;51.114;13.780;2022-12-29T06:55:32;10.80;1.00
573;DHT22;271;51.114;13.780;2022-12-29T06:58:01;10.80;1.00
573;DHT22;271;51.114;13.780;2022-12-29T07:00:30;10.80;1.00
573;DHT22;271;51.114;13.780;2022-12-29T07:02:57;10.80;1.00
573;DHT22;271;51.114;13.780;2022-12-29T07:05:25;10.80;1.00
573;DHT22;271;51.114;13.780;2022-12-29T07:07:54;10.80;1.00
573;DHT22;271;51.114;13.780;2022-12-29T07:10:22;10.80;1.00
573;DHT22;271;51.114;13.780;2022-12-29T07:12:49;10.70;1.00
573;DHT22;271;51.114;13.780;2022-12-29T07:15:21;10.70;1.00
573;DHT22;271;51.114;13.780;2022-12-29T07:17:51;10.70;1.00
573;DHT22;271;51.114;13.780;2022-12-29T07:20:18;10.60;1.00
573;DHT22;271;51.114;13.780;2022-12-29T07:22:45;10.70;1.00
573;DHT22;271;51.114;13.780;2022-12-29T07:25:13;10.60;1.00
573;DHT22;271;51.114;13.780;2022-12-29T07:27:41;10.60;1.00
573;DHT22;271;51.114;13.780;2022-12-29T07:30:09;10.60;1.00
573;DHT22;271;51.114;13.780;2022-12-29T07:32:38;10.60;1.00
573;DHT22;271;51.114;13.780;2022-12-29T07:35:06;10.70;1.00
573;DHT22;271;51.114;13.780;2022-12-29T07:37:34;10.70;1.00
573;DHT22;271;51.114;13.780;2022-12-29T07:40:02;10.70;1.00
573;DHT22;271;51.114;13.780;2022-12-29T07:42:30;10.70;1.00
573;DHT22;271;51.114;13.780;2022-12-29T07:44:58;10.80;1.00
573;DHT22;271;51.114;13.780;2022-12-29T07:47:26;10.80;1.00
573;DHT22;271;51.114;13.780;2022-12-29T07:49:54;10.80;1.00
573;DHT22;271;51.114;13.780;2022-12-29T07:52:22;10.90;1.00
573;DHT22;271;51.114;13.780;2022-12-29T07:54:49;10.90;1.00
573;DHT22;271;51.114;13.780;2022-12-29T07:57:17;10.90;1.00
573;DHT22;271;51.114;13.780;2022-12-29T07:59:44;10.90;1.00
573;DHT22;271;51.114;13.780;2022-12-29T08:02:12;11.00;1.00
573;DHT22;271;51.114;13.780;2022-12-29T08:04:39;10.90;1.00
573;DHT22;271;51.114;13.780;2022-12-29T08:07:08;11.00;1.00
573;DHT22;271;51.114;13.780;2022-12-29T08:09:35;11.00;1.00
573;DHT22;271;51.114;13.780;2022-12-29T08:12:03;11.00;1.00
573;DHT22;271;51.114;13.780;2022-12-29T08:14:30;11.10;1.00
573;DHT22;271;51.114;13.780;2022-12-29T08:16:58;11.10;1.00
573;DHT22;271;51.114;13.780;2022-12-29T08:19:25;11.10;1.00
573;DHT22;271;51.114;13.780;2022-12-29T08:21:52;11.10;1.00
573;DHT22;271;51.114;13.780;2022-12-29T08:24:21;11.10;1.00
573;DHT22;271;51.114;13.780;2022-12-29T08:26:49;11.10;1.00
573;DHT22;271;51.114;13.780;2022-12-29T08:29:16;11.20;1.00
573;DHT22;271;51.114;13.780;2022-12-29T08:31:44;11.20;1.00
573;DHT22;271;51.114;13.780;2022-12-29T08:34:11;11.10;1.00
573;DHT22;271;51.114;13.780;2022-12-29T08:36:38;11.00;1.00
573;DHT22;271;51.114;13.780;2022-12-29T08:39:06;10.90;1.00
573;DHT22;271;51.114;13.780;2022-12-29T08:41:35;10.90;1.00
573;DHT22;271;51.114;13.780;2022-12-29T08:44:02;10.80;1.00
573;DHT22;271;51.114;13.780;2022-12-29T08:46:30;10.80;1.00
573;DHT22;271;51.114;13.780;2022-12-29T08:48:58;10.80;1.00
573;DHT22;271;51.114;13.780;2022-12-29T08:51:25;10.80;1.00
573;DHT22;271;51.114;13.780;2022-12-29T08:53:53;10.80;1.00
573;DHT22;271;51.114;13.780;2022-12-29T08:56:20;10.90;1.00
573;DHT22;271;51.114;13.780;2022-12-29T08:58:51;10.90;1.00
573;DHT22;271;51.114;13.780;2022-12-29T09:01:19;10.80;1.00
573;DHT22;271;51.114;13.780;2022-12-29T09:03:47;10.70;1.00
573;DHT22;271;51.114;13.780;2022-12-29T09:06:15;10.70;1.00
573;DHT22;271;51.114;13.780;2022-12-29T09:08:43;10.80;1.00
573;DHT22;271;51.114;13.780;2022-12-29T09:11:15;10.70;1.00
573;DHT22;271;51.114;13.780;2022-12-29T09:13:42;10.80;1.00
573;DHT22;271;51.114;13.780;2022-12-29T09:16:11;10.80;1.00
573;DHT22;271;51.114;13.780;2022-12-29T09:18:39;10.80;1.00
573;DHT22;271;51.114;13.780;2022-12-29T09:21:07;10.80;1.00
573;DHT22;271;51.114;13.780;2022-12-29T09:23:36;10.90;1.00
573;DHT22;271;51.114;13.780;2022-12-29T09:26:04;10.90;1.00
573;DHT22;271;51.114;13.780;2022-12-29T09:28:32;11.10;1.00
573;DHT22;271;51.114;13.780;2022-12-29T09:31:01;11.20;1.00
573;DHT22;271;51.114;13.780;2022-12-29T09:33:30;11.20;1.00
573;DHT22;271;51.114;13.780;2022-12-29T09:35:58;11.30;1.00
573;DHT22;271;51.114;13.780;2022-12-29T09:38:27;11.30;1.00
573;DHT22;271;51.114;13.780;2022-12-29T09:41:01;11.40;1.00
573;DHT22;271;51.114;13.780;2022-12-29T09:43:51;11.40;1.00
573;DHT22;271;51.114;13.780;2022-12-29T09:46:25;11.50;1.00
573;DHT22;271;51.114;13.780;2022-12-29T09:49:03;11.60;1.00
573;DHT22;271;51.114;13.780;2022-12-29T09:51:35;11.70;1.00
573;DHT22;271;51.114;13.780;2022-12-29T09:54:21;11.90;1.00
573;DHT22;271;51.114;13.780;2022-12-29T09:56:51;12.10;1.00
573;DHT22;271;51.114;13.780;2022-12-29T09:59:22;12.20;1.00
573;DHT22;271;51.114;13.780;2022-12-29T10:01:56;12.50;1.00
573;DHT22;271;51.114;13.780;2022-12-29T10:04:27;13.00;1.00
573;DHT22;271;51.114;13.780;2022-12-29T10:06:58;13.70;1.00
573;DHT22;271;51.114;13.780;2022-12-29T10:09:33;14.20;1.00
573;DHT22;271;51.114;13.780;2022-12-29T10:12:12;14.50;1.00
573;DHT22;271;51.114;13.780;2022-12-29T10:14:55;14.50;1.00
573;DHT22;271;51.114;13.780;2022-12-29T10:17:31;14.60;1.00
573;DHT22;271;51.114;13.780;2022-12-29T10:20:14;14.40;1.00
573;DHT22;271;51.114;13.780;2022-12-29T10:23:02;14.30;1.00
573;DHT22;271;51.114;13.780;2022-12-29T10:25:38;14.10;1.00
573;DHT22;271;51.114;13.780;2022-12-29T10:28:15;14.00;1.00
573;DHT22;271;51.114;13.780;2022-12-29T10:30:44;14.00;1.00
573;DHT22;271;51.114;13.780;2022-12-29T10:33:22;14.20;1.00
573;DHT22;271;51.114;13.780;2022-12-29T10:35:54;14.10;1.00
573;DHT22;271;51.114;13.780;2022-12-29T10:38:26;14.20;1.00
573;DHT22;271;51.114;13.780;2022-12-29T10:41:00;14.30;1.00
573;DHT22;271;51.114;13.780;2022-12-29T10:43:44;14.10;1.00
573;DHT22;271;51.114;13.780;2022-12-29T10:46:15;14.00;1.00
573;DHT22;271;51.114;13.780;2022-12-29T10:48:43;13.70;1.00
573;DHT22;271;51.114;13.780;2022-12-29T10:51:21;13.40;1.00
573;DHT22;271;51.114;13.780;2022-12-29T10:53:53;13.20;1.00
573;DHT22;271;51.114;13.780;2022-12-29T10:56:30;13.10;1.00
573;DHT22;271;51.114;13.780;2022-12-29T10:59:06;13.10;1.00
573;DHT22;271;51.114;13.780;2022-12-29T11:01:41;13.10;1.00
573;DHT22;271;51.114;13.780;2022-12-29T11:04:25;13.00;1.00
573;DHT22;271;51.114;13.780;2022-12-29T11:07:00;12.90;1.00
573;DHT22;271;51.114;13.780;2022-12-29T11:09:29;13.00;1.00
573;DHT22;271;51.114;13.780;2022-12-29T11:11:58;13.00;1.00
573;DHT22;271;51.114;13.780;2022-12-29T11:14:28;13.00;1.00
573;DHT22;271;51.114;13.780;2022-12-29T11:16:58;12.90;1.00
573;DHT22;271;51.114;13.780;2022-12-29T11:19:27;12.90;1.00
573;DHT22;271;51.114;13.780;2022-12-29T11:22:13;12.90;1.00
573;DHT22;271;51.114;13.780;2022-12-29T11:24:44;12.90;1.00
573;DHT22;271;51.114;13.780;2022-12-29T11:27:15;13.00;1.00
573;DHT22;271;51.114;13.780;2022-12-29T11:29:45;12.90;1.00
573;DHT22;271;51.114;13.780;2022-12-29T11:32:17;12.80;1.00
573;DHT22;271;51.114;13.780;2022-12-29T11:34:45;12.80;1.00
573;DHT22;271;51.114;13.780;2022-12-29T11:37:19;12.80;1.00
573;DHT22;271;51.114;13.780;2022-12-29T11:39:54;12.90;1.00
573;DHT22;271;51.114;13.780;2022-12-29T11:42:29;12.90;1.00
573;DHT22;271;51.114;13.780;2022-12-29T11:45:05;13.00;1.00
573;DHT22;271;51.114;13.780;2022-12-29T11:47:33;13.00;1.00
573;DHT22;271;51.114;13.780;2022-12-29T11:50:06;12.90;1.00
573;DHT22;271;51.114;13.780;2022-12-29T11:52:37;13.00;1.00
573;DHT22;271;51.114;13.780;2022-12-29T11:55:16;13.00;1.00
573;DHT22;271;51.114;13.780;2022-12-29T11:57:44;13.00;1.00
573;DHT22;271;51.114;13.780;2022-12-29T12:00:20;12.90;1.00
573;DHT22;271;51.114;13.780;2022-12-29T12:02:54;12.90;1.00
573;DHT22;271;51.114;13.780;2022-12-29T12:05:30;12.90;1.00
573;DHT22;271;51.114;13.780;2022-12-29T12:08:05;12.90;1.00
573;DHT22;271;51.114;13.780;2022-12-29T12:10:41;12.90;1.00
573;DHT22;271;51.114;13.780;2022-12-29T12:13:20;12.90;1.00
573;DHT22;271;51.114;13.780;2022-12-29T12:15:54;12.90;1.00
573;DHT22;271;51.114;13.780;2022-12-29T12:18:32;12.90;1.00
573;DHT22;271;51.114;13.780;2022-12-29T12:21:08;12.90;1.00
573;DHT22;271;51.114;13.780;2022-12-29T12:23:50;13.00;1.00
573;DHT22;271;51.114;13.780;2022-12-29T12:26:23;13.00;1.00
573;DHT22;271;51.114;13.780;2022-12-29T12:28:57;13.00;1.00
573;DHT22;271;51.114;13.780;2022-12-29T12:31:41;13.00;1.00
573;DHT22;271;51.114;13.780;2022-12-29T12:34:15;13.10;1.00
573;DHT22;271;51.114;13.780;2022-12-29T12:37:02;13.10;1.00
573;DHT22;271;51.114;13.780;2022-12-29T12:39:44;13.00;1.00
573;DHT22;271;51.114;13.780;2022-12-29T12:42:24;13.00;1.00
573;DHT22;271;51.114;13.780;2022-12-29T12:45:02;13.10;1.00
573;DHT22;271;51.114;13.780;2022-12-29T12:47:46;13.20;1.00
573;DHT22;271;51.114;13.780;2022-12-29T12:50:36;13.30;1.00
573;DHT22;271;51.114;13.780;2022-12-29T12:53:41;13.40;1.00
573;DHT22;271;51.114;13.780;2022-12-29T12:59:09;13.40;1.00
573;DHT22;271;51.114;13.780;2022-12-29T13:01:47;13.50;1.00
573;DHT22;271;51.114;13.780;2022-12-29T13:04:38;13.50;1.00
573;DHT22;271;51.114;13.780;2022-12-29T13:07:18;13.50;1.00
573;DHT22;271;51.114;13.780;2022-12-29T13:10:00;13.50;1.00
573;DHT22;271;51.114;13.780;2022-12-29T13:12:36;13.50;1.00
573;DHT22;271;51.114;13.780;2022-12-29T13:15:15;13.60;1.00
573;DHT22;271;51.114;13.780;2022-12-29T13:17:53;13.80;1.00
573;DHT22;271;51.114;13.780;2022-12-29T13:20:30;13.80;1.00
573;DHT22;271;51.114;13.780;2022-12-29T13:23:05;13.80;1.00
573;DHT22;271;51.114;13.780;2022-12-29T13:25:39;13.70;1.00
573;DHT22;271;51.114;13.780;2022-12-29T13:28:16;13.70;1.00
573;DHT22;271;51.114;13.780;2022-12-29T13:30:51;13.90;1.00
573;DHT22;271;51.114;13.780;2022-12-29T13:33:26;13.80;1.00
573;DHT22;271;51.114;13.780;2022-12-29T13:36:00;13.80;1.00
573;DHT22;271;51.114;13.780;2022-12-29T13:38:33;13.70;1.00
573;DHT22;271;51.114;13.780;2022-12-29T13:41:05;13.50;1.00
573;DHT22;271;51.114;13.780;2022-12-29T13:43:38;13.50;1.00
573;DHT22;271;51.114;13.780;2022-12-29T13:46:10;13.40;1.00
573;DHT22;271;51.114;13.780;2022-12-29T13:48:44;13.40;1.00
573;DHT22;271;51.114;13.780;2022-12-29T13:51:14;13.30;1.00
573;DHT22;271;51.114;13.780;2022-12-29T13:53:54;13.30;1.00
573;DHT22;271;51.114;13.780;2022-12-29T13:56:26;13.20;1.00
573;DHT22;271;51.114;13.780;2022-12-29T13:59:04;13.20;1.00
573;DHT22;271;51.114;13.780;2022-12-29T14:01:35;13.20;1.00
573;DHT22;271;51.114;13.780;2022-12-29T14:04:12;13.10;1.00
573;DHT22;271;51.114;13.780;2022-12-29T14:06:40;13.10;1.00
573;DHT22;271;51.114;13.780;2022-12-29T14:09:29;13.10;1.00
573;DHT22;271;51.114;13.780;2022-12-29T14:12:00;13.10;1.00
573;DHT22;271;51.114;13.780;2022-12-29T14:14:30;13.00;1.00
573;DHT22;271;51.114;13.780;2022-12-29T14:17:09;13.00;1.00
573;DHT22;271;51.114;13.780;2022-12-29T14:19:39;13.00;1.00
573;DHT22;271;51.114;13.780;2022-12-29T14:22:08;13.00;1.00
573;DHT22;271;51.114;13.780;2022-12-29T14:24:42;13.00;1.00
573;DHT22;271;51.114;13.780;2022-12-29T14:27:43;12.90;1.00
573;DHT22;271;51.114;13.780;2022-12-29T14:33:19;12.90;1.00
573;DHT22;271;51.114;13.780;2022-12-29T14:35:48;12.90;1.00
573;DHT22;271;51.114;13.780;2022-12-29T14:38:29;13.00;1.00
573;DHT22;271;51.114;13.780;2022-12-29T14:41:32;13.00;1.00
573;DHT22;271;51.114;13.780;2022-12-29T14:44:02;13.00;1.00
573;DHT22;271;51.114;13.780;2022-12-29T14:46:56;12.90;1.00
573;DHT22;271;51.114;13.780;2022-12-29T14:49:28;12.90;1.00
573;DHT22;271;51.114;13.780;2022-12-29T14:52:06;13.00;1.00
573;DHT22;271;51.114;13.780;2022-12-29T14:54:46;12.90;1.00
573;DHT22;271;51.114;13.780;2022-12-29T15:00:18;12.90;1.00
573;DHT22;271;51.114;13.780;2022-12-29T15:02:50;12.80;1.00
573;DHT22;271;51.114;13.780;2022-12-29T15:05:29;12.90;1.00
573;DHT22;271;51.114;13.780;2022-12-29T15:07:59;12.90;1.00
573;DHT22;271;51.114;13.780;2022-12-29T15:10:34;12.90;1.00
573;DHT22;271;51.114;13.780;2022-12-29T15:13:05;12.90;1.00
573;DHT22;271;51.114;13.780;2022-12-29T15:15:40;12.80;1.00
573;DHT22;271;51.114;13.780;2022-12-29T15:18:25;12.80;1.00
573;DHT22;271;51.114;13.780;2022-12-29T15:20:56;12.70;1.00
573;DHT22;271;51.114;13.780;2022-12-29T15:23:25;12.70;1.00
573;DHT22;271;51.114;13.780;2022-12-29T15:25:55;12.60;1.00
573;DHT22;271;51.114;13.780;2022-12-29T15:28:24;12.70;1.00
573;DHT22;271;51.114;13.780;2022-12-29T15:30:53;12.60;1.00
573;DHT22;271;51.114;13.780;2022-12-29T15:33:23;12.60;1.00
573;DHT22;271;51.114;13.780;2022-12-29T15:35:52;12.50;1.00
573;DHT22;271;51.114;13.780;2022-12-29T15:38:24;12.50;1.00
573;DHT22;271;51.114;13.780;2022-12-29T15:40:54;12.50;1.00
573;DHT22;271;51.114;13.780;2022-12-29T15:43:42;12.50;1.00
573;DHT22;271;51.114;13.780;2022-12-29T15:46:13;12.40;1.00
573;DHT22;271;51.114;13.780;2022-12-29T15:48:41;12.40;1.00
573;DHT22;271;51.114;13.780;2022-12-29T15:51:17;12.40;1.00
573;DHT22;271;51.114;13.780;2022-12-29T15:53:49;12.40;1.00
573;DHT22;271;51.114;13.780;2022-12-29T15:56:17;12.40;1.00
573;DHT22;271;51.114;13.780;2022-12-29T15:58:46;12.40;1.00
573;DHT22;271;51.114;13.780;2022-12-29T16:01:19;12.30;1.00
573;DHT22;271;51.114;13.780;2022-12-29T16:03:47;12.30;1.00
573;DHT22;271;51.114;13.780;2022-12-29T16:06:31;12.30;1.00
573;DHT22;271;51.114;13.780;2022-12-29T16:09:02;12.30;1.00
573;DHT22;271;51.114;13.780;2022-12-29T16:11:33;12.20;1.00
573;DHT22;271;51.114;13.780;2022-12-29T16:14:01;12.20;1.00
573;DHT22;271;51.114;13.780;2022-12-29T16:16:32;12.10;1.00
573;DHT22;271;51.114;13.780;2022-12-29T16:19:06;12.10;1.00
573;DHT22;271;51.114;13.780;2022-12-29T16:21:37;12.00;1.00
573;DHT22;271;51.114;13.780;2022-12-29T16:24:08;12.00;1.00
573;DHT22;271;51.114;13.780;2022-12-29T16:26:39;11.90;1.00
573;DHT22;271;51.114;13.780;2022-12-29T16:29:12;11.90;1.00
573;DHT22;271;51.114;13.780;2022-12-29T16:31:50;11.90;1.00
573;DHT22;271;51.114;13.780;2022-12-29T16:34:23;11.80;1.00
573;DHT22;271;51.114;13.780;2022-12-29T16:36:54;11.80;1.00
573;DHT22;271;51.114;13.780;2022-12-29T16:39:33;11.80;1.00
573;DHT22;271;51.114;13.780;2022-12-29T16:42:34;11.80;1.00
573;DHT22;271;51.114;13.780;2022-12-29T16:48:18;11.60;1.00
573;DHT22;271;51.114;13.780;2022-12-29T16:50:48;11.60;1.00
573;DHT22;271;51.114;13.780;2022-12-29T16:53:21;11.60;1.00
573;DHT22;271;51.114;13.780;2022-12-29T16:55:53;11.60;1.00
573;DHT22;271;51.114;13.780;2022-12-29T16:58:22;11.60;1.00
573;DHT22;271;51.114;13.780;2022-12-29T17:00:52;11.50;1.00
573;DHT22;271;51.114;13.780;2022-12-29T17:03:22;11.50;1.00
573;DHT22;271;51.114;13.780;2022-12-29T17:05:50;11.60;1.00
573;DHT22;271;51.114;13.780;2022-12-29T17:08:19;11.60;1.00
573;DHT22;271;51.114;13.780;2022-12-29T17:10:49;11.60;1.00
573;DHT22;271;51.114;13.780;2022-12-29T17:13:37;11.50;1.00
573;DHT22;271;51.114;13.780;2022-12-29T17:16:06;11.40;1.00
573;DHT22;271;51.114;13.780;2022-12-29T17:18:34;11.30;1.00
573;DHT22;271;51.114;13.780;2022-12-29T17:21:02;11.30;1.00
573;DHT22;271;51.114;13.780;2022-12-29T17:23:33;11.30;1.00
573;DHT22;271;51.114;13.780;2022-12-29T17:26:01;11.30;1.00
573;DHT22;271;51.114;13.780;2022-12-29T17:28:30;11.20;1.00